Green Valley, West Virginia
Current Conditions -  °F | °C
As of 6:52 AM on Thursday 29 Jan 2015 (Local Time) from KBLF Reporting Station
Clear Clear  
Wind Chill: 30°   Ceiling: Unl
Heat Index: 34°   Visibility: 10mi
Dew Point: 12°   Wind: 5mph
Humidity: 40%   Direction: NA
Pressure: 30.12"   Gusts: NA
Location:  37.2994°N, 81.226°W
Report Text: KBLF 291152Z AUTO VRB04KT 10SM CLR 01/M11 A3012 RMK AO2 SLP214 T00111111 10011 21028 56012
Loading
Personal Weather Stations






























Interactive Weather Map New forecast layout! Learn more

10-Day Weather Forecast

Advertisements
Track Severe Weather on mobile